sensor_id;sensor_type;location;lat;lon;timestamp;pressure;altitude;pressure_sealevel;temperature;humidity
56070;BME280;41944;52.078;-0.058;2023-01-29T00:00:04;102787.38;;;5.64;98.50
56070;BME280;41944;52.078;-0.058;2023-01-29T00:02:31;102790.80;;;5.79;98.10
56070;BME280;41944;52.078;-0.058;2023-01-29T00:04:58;102784.81;;;5.65;98.65
56070;BME280;41944;52.078;-0.058;2023-01-29T00:07:25;102779.67;;;5.62;98.82
56070;BME280;41944;52.078;-0.058;2023-01-29T00:09:52;102783.61;;;5.57;99.55
56070;BME280;41944;52.078;-0.058;2023-01-29T00:12:19;102783.83;;;5.58;99.86
56070;BME280;41944;52.078;-0.058;2023-01-29T00:14:46;102787.24;;;5.59;99.75
56070;BME280;41944;52.078;-0.058;2023-01-29T00:17:13;102784.54;;;5.61;99.52
56070;BME280;41944;52.078;-0.058;2023-01-29T00:19:40;102787.29;;;5.56;99.88
56070;BME280;41944;52.078;-0.058;2023-01-29T00:22:07;102787.31;;;5.58;99.87
56070;BME280;41944;52.078;-0.058;2023-01-29T00:24:35;102789.56;;;5.64;99.32
56070;BME280;41944;52.078;-0.058;2023-01-29T00:27:02;102792.80;;;5.74;99.46
56070;BME280;41944;52.078;-0.058;2023-01-29T00:29:29;102790.00;;;5.78;98.76
56070;BME280;41944;52.078;-0.058;2023-01-29T00:31:56;102788.75;;;5.78;98.76
56070;BME280;41944;52.078;-0.058;2023-01-29T00:34:22;102783.39;;;5.78;98.59
56070;BME280;41944;52.078;-0.058;2023-01-29T00:36:50;102778.01;;;5.73;98.98
56070;BME280;41944;52.078;-0.058;2023-01-29T00:39:17;102766.28;;;5.80;98.78
56070;BME280;41944;52.078;-0.058;2023-01-29T00:41:44;102754.64;;;5.84;98.55
56070;BME280;41944;52.078;-0.058;2023-01-29T00:44:11;102748.14;;;5.97;97.96
56070;BME280;41944;52.078;-0.058;2023-01-29T00:46:39;102740.65;;;5.88;98.42
56070;BME280;41944;52.078;-0.058;2023-01-29T00:49:06;102743.15;;;5.73;99.47
56070;BME280;41944;52.078;-0.058;2023-01-29T00:51:34;102749.82;;;5.62;100.00
56070;BME280;41944;52.078;-0.058;2023-01-29T00:54:02;102752.99;;;5.61;100.00
56070;BME280;41944;52.078;-0.058;2023-01-29T00:56:30;102752.13;;;5.60;100.00
56070;BME280;41944;52.078;-0.058;2023-01-29T00:58:56;102755.15;;;5.76;100.00
56070;BME280;41944;52.078;-0.058;2023-01-29T01:01:24;102753.29;;;5.73;100.00
56070;BME280;41944;52.078;-0.058;2023-01-29T01:03:51;102751.62;;;5.75;100.00
56070;BME280;41944;52.078;-0.058;2023-01-29T01:06:17;102747.71;;;5.68;100.00
56070;BME280;41944;52.078;-0.058;2023-01-29T01:08:45;102747.57;;;5.66;100.00
56070;BME280;41944;52.078;-0.058;2023-01-29T01:11:12;102742.75;;;5.74;100.00
56070;BME280;41944;52.078;-0.058;2023-01-29T01:13:39;102736.52;;;5.74;100.00
56070;BME280;41944;52.078;-0.058;2023-01-29T01:16:09;102731.55;;;5.71;100.00
56070;BME280;41944;52.078;-0.058;2023-01-29T01:18:36;102733.22;;;5.62;100.00
56070;BME280;41944;52.078;-0.058;2023-01-29T01:21:04;102735.86;;;5.61;100.00
56070;BME280;41944;52.078;-0.058;2023-01-29T01:23:32;102737.03;;;5.73;100.00
56070;BME280;41944;52.078;-0.058;2023-01-29T01:25:59;102733.04;;;5.76;100.00
56070;BME280;41944;52.078;-0.058;2023-01-29T01:28:26;102730.10;;;5.73;100.00
56070;BME280;41944;52.078;-0.058;2023-01-29T01:30:53;102735.94;;;5.60;100.00
56070;BME280;41944;52.078;-0.058;2023-01-29T01:33:21;102737.93;;;5.62;100.00
56070;BME280;41944;52.078;-0.058;2023-01-29T01:35:47;102742.11;;;5.66;100.00
56070;BME280;41944;52.078;-0.058;2023-01-29T01:38:15;102740.10;;;5.69;100.00
56070;BME280;41944;52.078;-0.058;2023-01-29T01:40:44;102741.66;;;5.73;100.00
56070;BME280;41944;52.078;-0.058;2023-01-29T01:43:11;102744.45;;;5.79;100.00
56070;BME280;41944;52.078;-0.058;2023-01-29T01:45:38;102747.20;;;5.88;100.00
56070;BME280;41944;52.078;-0.058;2023-01-29T01:48:08;102749.11;;;5.79;100.00
56070;BME280;41944;52.078;-0.058;2023-01-29T01:50:40;102753.57;;;5.89;100.00
56070;BME280;41944;52.078;-0.058;2023-01-29T01:53:11;102749.84;;;5.70;100.00
56070;BME280;41944;52.078;-0.058;2023-01-29T01:55:46;102746.45;;;5.71;100.00
56070;BME280;41944;52.078;-0.058;2023-01-29T01:58:19;102742.74;;;5.64;100.00
56070;BME280;41944;52.078;-0.058;2023-01-29T02:00:49;102744.44;;;5.67;100.00
56070;BME280;41944;52.078;-0.058;2023-01-29T02:03:17;102741.91;;;5.91;100.00
56070;BME280;41944;52.078;-0.058;2023-01-29T02:05:46;102742.64;;;5.90;100.00
56070;BME280;41944;52.078;-0.058;2023-01-29T02:08:14;102743.65;;;5.82;100.00
56070;BME280;41944;52.078;-0.058;2023-01-29T02:10:45;102741.79;;;5.79;100.00
56070;BME280;41944;52.078;-0.058;2023-01-29T02:13:14;102740.87;;;5.65;100.00
56070;BME280;41944;52.078;-0.058;2023-01-29T02:15:41;102741.55;;;5.64;100.00
56070;BME280;41944;52.078;-0.058;2023-01-29T02:18:09;102739.36;;;5.61;100.00
56070;BME280;41944;52.078;-0.058;2023-01-29T02:20:37;102733.73;;;5.68;100.00
56070;BME280;41944;52.078;-0.058;2023-01-29T02:23:33;102735.21;;;5.58;100.00
56070;BME280;41944;52.078;-0.058;2023-01-29T02:26:25;102735.18;;;5.59;100.00
56070;BME280;41944;52.078;-0.058;2023-01-29T02:29:00;102731.75;;;5.72;100.00
56070;BME280;41944;52.078;-0.058;2023-01-29T02:31:33;102730.22;;;5.72;100.00
56070;BME280;41944;52.078;-0.058;2023-01-29T02:34:14;102727.01;;;5.85;100.00
56070;BME280;41944;52.078;-0.058;2023-01-29T02:36:49;102724.96;;;5.92;100.00
56070;BME280;41944;52.078;-0.058;2023-01-29T02:39:22;102716.47;;;6.00;100.00
56070;BME280;41944;52.078;-0.058;2023-01-29T02:41:57;102716.61;;;6.13;100.00
56070;BME280;41944;52.078;-0.058;2023-01-29T02:44:31;102709.19;;;6.13;100.00
56070;BME280;41944;52.078;-0.058;2023-01-29T02:47:04;102711.84;;;6.17;100.00
56070;BME280;41944;52.078;-0.058;2023-01-29T02:49:40;102708.89;;;6.17;100.00
56070;BME280;41944;52.078;-0.058;2023-01-29T02:52:15;102706.77;;;6.17;100.00
56070;BME280;41944;52.078;-0.058;2023-01-29T02:54:49;102706.85;;;6.21;99.78
56070;BME280;41944;52.078;-0.058;2023-01-29T02:57:20;102704.78;;;6.15;100.00
56070;BME280;41944;52.078;-0.058;2023-01-29T02:59:53;102701.16;;;6.21;100.00
56070;BME280;41944;52.078;-0.058;2023-01-29T03:02:27;102695.28;;;6.26;99.50
56070;BME280;41944;52.078;-0.058;2023-01-29T03:04:59;102694.63;;;6.15;99.95
56070;BME280;41944;52.078;-0.058;2023-01-29T03:07:34;102693.71;;;6.11;100.00
56070;BME280;41944;52.078;-0.058;2023-01-29T03:10:09;102694.51;;;6.12;100.00
56070;BME280;41944;52.078;-0.058;2023-01-29T03:12:40;102691.69;;;6.14;100.00
56070;BME280;41944;52.078;-0.058;2023-01-29T03:15:14;102695.32;;;6.21;100.00
56070;BME280;41944;52.078;-0.058;2023-01-29T03:17:46;102691.28;;;6.12;100.00
56070;BME280;41944;52.078;-0.058;2023-01-29T03:20:18;102686.60;;;6.15;99.81
56070;BME280;41944;52.078;-0.058;2023-01-29T03:22:51;102685.06;;;6.43;98.26
56070;BME280;41944;52.078;-0.058;2023-01-29T03:25:21;102681.98;;;6.36;98.10
56070;BME280;41944;52.078;-0.058;2023-01-29T03:27:53;102673.07;;;6.39;97.79
56070;BME280;41944;52.078;-0.058;2023-01-29T03:30:24;102669.72;;;6.29;98.54
56070;BME280;41944;52.078;-0.058;2023-01-29T03:32:54;102660.76;;;6.26;98.45
56070;BME280;41944;52.078;-0.058;2023-01-29T03:35:25;102653.58;;;6.25;98.89
56070;BME280;41944;52.078;-0.058;2023-01-29T03:37:55;102654.51;;;6.22;98.95
56070;BME280;41944;52.078;-0.058;2023-01-29T03:40:21;102646.45;;;6.07;99.57
56070;BME280;41944;52.078;-0.058;2023-01-29T03:42:55;102647.50;;;6.20;99.40
56070;BME280;41944;52.078;-0.058;2023-01-29T03:45:30;102646.99;;;6.21;99.15
56070;BME280;41944;52.078;-0.058;2023-01-29T03:48:05;102648.99;;;6.16;99.01
56070;BME280;41944;52.078;-0.058;2023-01-29T03:50:37;102648.79;;;6.21;98.48
56070;BME280;41944;52.078;-0.058;2023-01-29T03:53:16;102652.26;;;6.25;98.58
56070;BME280;41944;52.078;-0.058;2023-01-29T03:55:53;102651.15;;;6.31;98.05
56070;BME280;41944;52.078;-0.058;2023-01-29T03:58:28;102654.55;;;6.39;96.82
56070;BME280;41944;52.078;-0.058;2023-01-29T04:01:01;102652.72;;;6.40;96.69
56070;BME280;41944;52.078;-0.058;2023-01-29T04:03:33;102649.07;;;6.37;96.68
56070;BME280;41944;52.078;-0.058;2023-01-29T04:06:07;102649.09;;;6.28;97.09
56070;BME280;41944;52.078;-0.058;2023-01-29T04:08:39;102646.53;;;6.38;97.24
56070;BME280;41944;52.078;-0.058;2023-01-29T04:11:13;102642.29;;;6.26;97.03
56070;BME280;41944;52.078;-0.058;2023-01-29T04:13:40;102643.54;;;6.16;97.42
56070;BME280;41944;52.078;-0.058;2023-01-29T04:16:11;102637.86;;;6.21;97.41
56070;BME280;41944;52.078;-0.058;2023-01-29T04:18:44;102635.07;;;6.10;97.46
56070;BME280;41944;52.078;-0.058;2023-01-29T04:21:12;102638.38;;;6.17;97.36
56070;BME280;41944;52.078;-0.058;2023-01-29T04:23:40;102636.78;;;6.21;96.84
56070;BME280;41944;52.078;-0.058;2023-01-29T04:26:23;102630.90;;;6.25;96.55
56070;BME280;41944;52.078;-0.058;2023-01-29T04:29:03;102628.18;;;6.14;97.19
56070;BME280;41944;52.078;-0.058;2023-01-29T04:31:41;102630.11;;;6.24;96.20
56070;BME280;41944;52.078;-0.058;2023-01-29T04:34:18;102625.60;;;6.35;95.98
56070;BME280;41944;52.078;-0.058;2023-01-29T04:36:56;102625.28;;;6.19;96.27
56070;BME280;41944;52.078;-0.058;2023-01-29T04:39:30;102618.72;;;6.14;96.76
56070;BME280;41944;52.078;-0.058;2023-01-29T04:42:05;102622.03;;;6.21;96.00
56070;BME280;41944;52.078;-0.058;2023-01-29T04:44:41;102620.92;;;6.19;96.50
56070;BME280;41944;52.078;-0.058;2023-01-29T04:47:18;102618.50;;;6.20;95.78
56070;BME280;41944;52.078;-0.058;2023-01-29T04:49:55;102612.43;;;6.26;95.71
56070;BME280;41944;52.078;-0.058;2023-01-29T04:52:32;102611.11;;;6.26;95.17
56070;BME280;41944;52.078;-0.058;2023-01-29T04:55:07;102606.30;;;6.31;95.08
56070;BME280;41944;52.078;-0.058;2023-01-29T04:57:40;102593.66;;;6.37;94.31
56070;BME280;41944;52.078;-0.058;2023-01-29T05:00:13;102588.43;;;6.42;93.96
56070;BME280;41944;52.078;-0.058;2023-01-29T05:02:44;102584.27;;;6.47;93.23
56070;BME280;41944;52.078;-0.058;2023-01-29T05:05:14;102574.68;;;6.50;92.66
56070;BME280;41944;52.078;-0.058;2023-01-29T05:07:43;102568.92;;;6.51;91.86
56070;BME280;41944;52.078;-0.058;2023-01-29T05:10:13;102570.85;;;6.38;92.03
56070;BME280;41944;52.078;-0.058;2023-01-29T05:12:44;102572.48;;;6.29;92.52
56070;BME280;41944;52.078;-0.058;2023-01-29T05:15:16;102571.43;;;6.17;92.88
56070;BME280;41944;52.078;-0.058;2023-01-29T05:17:45;102546.70;;;6.41;92.09
56070;BME280;41944;52.078;-0.058;2023-01-29T05:20:12;102540.92;;;6.50;91.24
56070;BME280;41944;52.078;-0.058;2023-01-29T05:22:40;102534.92;;;6.54;90.97
56070;BME280;41944;52.078;-0.058;2023-01-29T05:25:19;102538.02;;;6.38;91.53
56070;BME280;41944;52.078;-0.058;2023-01-29T05:27:49;102565.36;;;6.20;91.75
56070;BME280;41944;52.078;-0.058;2023-01-29T05:30:17;102563.07;;;6.22;92.04
56070;BME280;41944;52.078;-0.058;2023-01-29T05:32:45;102561.18;;;6.26;91.90
56070;BME280;41944;52.078;-0.058;2023-01-29T05:35:12;102562.18;;;6.28;91.74
56070;BME280;41944;52.078;-0.058;2023-01-29T05:37:38;102560.28;;;6.27;91.30
56070;BME280;41944;52.078;-0.058;2023-01-29T05:40:07;102550.57;;;6.31;91.21
56070;BME280;41944;52.078;-0.058;2023-01-29T05:42:35;102538.59;;;6.42;90.76
56070;BME280;41944;52.078;-0.058;2023-01-29T05:45:02;102530.94;;;6.35;90.93
56070;BME280;41944;52.078;-0.058;2023-01-29T05:47:29;102522.61;;;6.36;90.97
56070;BME280;41944;52.078;-0.058;2023-01-29T05:49:57;102520.50;;;6.45;90.45
56070;BME280;41944;52.078;-0.058;2023-01-29T05:52:24;102512.13;;;6.40;89.84
56070;BME280;41944;52.078;-0.058;2023-01-29T05:54:51;102509.54;;;6.29;90.38
56070;BME280;41944;52.078;-0.058;2023-01-29T05:57:18;102512.28;;;6.31;90.65
56070;BME280;41944;52.078;-0.058;2023-01-29T05:59:46;102517.81;;;6.26;90.73
56070;BME280;41944;52.078;-0.058;2023-01-29T06:02:13;102519.22;;;6.21;90.77
56070;BME280;41944;52.078;-0.058;2023-01-29T06:04:40;102517.76;;;6.23;90.54
56070;BME280;41944;52.078;-0.058;2023-01-29T06:07:07;102514.91;;;6.48;89.57
56070;BME280;41944;52.078;-0.058;2023-01-29T06:09:34;102519.09;;;6.53;88.81
56070;BME280;41944;52.078;-0.058;2023-01-29T06:12:02;102516.52;;;6.56;88.21
56070;BME280;41944;52.078;-0.058;2023-01-29T06:14:29;102515.83;;;6.29;89.15
56070;BME280;41944;52.078;-0.058;2023-01-29T06:16:56;102520.86;;;6.31;89.66
56070;BME280;41944;52.078;-0.058;2023-01-29T06:19:23;102517.89;;;6.28;89.85
56070;BME280;41944;52.078;-0.058;2023-01-29T06:21:50;102515.23;;;6.43;88.84
56070;BME280;41944;52.078;-0.058;2023-01-29T06:24:18;102512.34;;;6.41;89.10
56070;BME280;41944;52.078;-0.058;2023-01-29T06:26:45;102511.00;;;6.20;89.68
56070;BME280;41944;52.078;-0.058;2023-01-29T06:29:12;102509.05;;;6.25;89.48
56070;BME280;41944;52.078;-0.058;2023-01-29T06:31:40;102512.24;;;6.06;90.40
56070;BME280;41944;52.078;-0.058;2023-01-29T06:34:07;102510.62;;;6.15;90.14
56070;BME280;41944;52.078;-0.058;2023-01-29T06:36:34;102504.86;;;6.24;89.90
56070;BME280;41944;52.078;-0.058;2023-01-29T06:39:02;102502.84;;;6.33;89.30
56070;BME280;41944;52.078;-0.058;2023-01-29T06:41:29;102497.86;;;6.22;89.99
56070;BME280;41944;52.078;-0.058;2023-01-29T06:43:56;102498.86;;;6.04;90.34
56070;BME280;41944;52.078;-0.058;2023-01-29T06:46:23;102490.34;;;6.16;90.28
56070;BME280;41944;52.078;-0.058;2023-01-29T06:48:50;102489.78;;;6.02;91.10
56070;BME280;41944;52.078;-0.058;2023-01-29T06:51:17;102485.50;;;5.96;91.50
56070;BME280;41944;52.078;-0.058;2023-01-29T06:53:44;102482.83;;;5.95;91.58
56070;BME280;41944;52.078;-0.058;2023-01-29T06:56:11;102482.00;;;6.01;91.76
56070;BME280;41944;52.078;-0.058;2023-01-29T06:58:38;102483.18;;;5.94;91.87
56070;BME280;41944;52.078;-0.058;2023-01-29T07:01:07;102479.74;;;5.89;92.72
56070;BME280;41944;52.078;-0.058;2023-01-29T07:03:35;102472.04;;;6.07;92.01
56070;BME280;41944;52.078;-0.058;2023-01-29T07:06:03;102478.36;;;6.00;91.82
56070;BME280;41944;52.078;-0.058;2023-01-29T07:08:30;102486.47;;;5.78;93.11
56070;BME280;41944;52.078;-0.058;2023-01-29T07:10:58;102484.21;;;5.60;94.46
56070;BME280;41944;52.078;-0.058;2023-01-29T07:13:26;102484.83;;;5.68;94.74
56070;BME280;41944;52.078;-0.058;2023-01-29T07:15:53;102485.54;;;5.68;94.83
56070;BME280;41944;52.078;-0.058;2023-01-29T07:18:20;102490.88;;;5.79;94.12
56070;BME280;41944;52.078;-0.058;2023-01-29T07:20:47;102493.86;;;5.85;93.97
56070;BME280;41944;52.078;-0.058;2023-01-29T07:23:15;102493.31;;;5.80;94.05
56070;BME280;41944;52.078;-0.058;2023-01-29T07:25:41;102491.91;;;5.68;95.06
56070;BME280;41944;52.078;-0.058;2023-01-29T07:28:08;102489.96;;;5.83;94.47
56070;BME280;41944;52.078;-0.058;2023-01-29T07:30:35;102490.55;;;5.71;95.15
56070;BME280;41944;52.078;-0.058;2023-01-29T07:33:03;102491.51;;;5.74;95.58
56070;BME280;41944;52.078;-0.058;2023-01-29T07:35:30;102487.16;;;5.89;94.66
56070;BME280;41944;52.078;-0.058;2023-01-29T07:37:57;102487.06;;;5.86;94.49
56070;BME280;41944;52.078;-0.058;2023-01-29T07:40:24;102483.83;;;5.84;94.88
56070;BME280;41944;52.078;-0.058;2023-01-29T07:42:56;102475.18;;;5.85;94.25
56070;BME280;41944;52.078;-0.058;2023-01-29T07:45:24;102473.57;;;5.89;93.87
56070;BME280;41944;52.078;-0.058;2023-01-29T07:47:52;102473.14;;;5.89;94.28
56070;BME280;41944;52.078;-0.058;2023-01-29T07:50:19;102474.88;;;5.89;93.97
56070;BME280;41944;52.078;-0.058;2023-01-29T07:52:47;102467.33;;;5.95;93.90
56070;BME280;41944;52.078;-0.058;2023-01-29T07:55:14;102469.77;;;5.88;93.61
56070;BME280;41944;52.078;-0.058;2023-01-29T07:57:41;102469.70;;;5.86;93.97
56070;BME280;41944;52.078;-0.058;2023-01-29T08:00:10;102465.87;;;5.84;93.94
56070;BME280;41944;52.078;-0.058;2023-01-29T08:02:37;102456.61;;;5.93;93.69
56070;BME280;41944;52.078;-0.058;2023-01-29T08:05:04;102464.27;;;5.87;93.84
56070;BME280;41944;52.078;-0.058;2023-01-29T08:07:31;102462.89;;;5.76;94.50
56070;BME280;41944;52.078;-0.058;2023-01-29T08:09:58;102459.57;;;5.98;93.67
56070;BME280;41944;52.078;-0.058;2023-01-29T08:12:26;102457.02;;;6.04;93.28
56070;BME280;41944;52.078;-0.058;2023-01-29T08:14:53;102455.35;;;6.15;92.60
56070;BME280;41944;52.078;-0.058;2023-01-29T08:17:20;102458.54;;;6.07;92.96
56070;BME280;41944;52.078;-0.058;2023-01-29T08:19:47;102457.69;;;5.99;93.11
56070;BME280;41944;52.078;-0.058;2023-01-29T08:22:14;102456.28;;;6.18;92.50
56070;BME280;41944;52.078;-0.058;2023-01-29T08:24:42;102453.12;;;6.10;92.27
56070;BME280;41944;52.078;-0.058;2023-01-29T08:27:09;102451.70;;;6.13;92.66
56070;BME280;41944;52.078;-0.058;2023-01-29T08:29:36;102445.10;;;6.13;92.91
56070;BME280;41944;52.078;-0.058;2023-01-29T08:32:04;102440.27;;;6.34;92.17
56070;BME280;41944;52.078;-0.058;2023-01-29T08:34:31;102430.73;;;6.36;91.82
56070;BME280;41944;52.078;-0.058;2023-01-29T08:36:58;102429.30;;;6.41;91.68
56070;BME280;41944;52.078;-0.058;2023-01-29T08:39:25;102429.57;;;6.41;91.34
56070;BME280;41944;52.078;-0.058;2023-01-29T08:41:52;102435.30;;;6.32;91.88
56070;BME280;41944;52.078;-0.058;2023-01-29T08:44:19;102427.81;;;6.41;91.94
56070;BME280;41944;52.078;-0.058;2023-01-29T08:46:47;102430.25;;;6.42;92.12
56070;BME280;41944;52.078;-0.058;2023-01-29T08:49:15;102431.48;;;6.59;91.37
56070;BME280;41944;52.078;-0.058;2023-01-29T08:51:42;102437.01;;;6.71;90.48
56070;BME280;41944;52.078;-0.058;2023-01-29T08:54:08;102438.38;;;6.73;90.76
56070;BME280;41944;52.078;-0.058;2023-01-29T08:56:37;102437.53;;;6.72;90.86
56070;BME280;41944;52.078;-0.058;2023-01-29T08:59:04;102439.91;;;6.73;90.96
56070;BME280;41944;52.078;-0.058;2023-01-29T09:01:31;102436.97;;;6.83;91.10
56070;BME280;41944;52.078;-0.058;2023-01-29T09:03:58;102438.53;;;6.89;90.70
56070;BME280;41944;52.078;-0.058;2023-01-29T09:06:25;102440.53;;;6.81;91.12
56070;BME280;41944;52.078;-0.058;2023-01-29T09:08:52;102443.44;;;6.95;90.53
56070;BME280;41944;52.078;-0.058;2023-01-29T09:11:19;102440.19;;;6.94;90.70
56070;BME280;41944;52.078;-0.058;2023-01-29T09:13:46;102439.61;;;7.14;89.77
56070;BME280;41944;52.078;-0.058;2023-01-29T09:16:13;102442.92;;;7.05;90.31
56070;BME280;41944;52.078;-0.058;2023-01-29T09:18:40;102449.95;;;7.15;90.13
56070;BME280;41944;52.078;-0.058;2023-01-29T09:21:07;102448.52;;;7.24;89.60
56070;BME280;41944;52.078;-0.058;2023-01-29T09:23:35;102449.73;;;7.29;89.57
56070;BME280;41944;52.078;-0.058;2023-01-29T09:26:03;102448.42;;;7.25;90.24
56070;BME280;41944;52.078;-0.058;2023-01-29T09:28:29;102449.90;;;7.31;90.36
56070;BME280;41944;52.078;-0.058;2023-01-29T09:31:00;102449.75;;;7.42;89.87
56070;BME280;41944;52.078;-0.058;2023-01-29T09:33:27;102452.14;;;7.51;89.75
56070;BME280;41944;52.078;-0.058;2023-01-29T09:35:54;102444.60;;;7.65;89.08
56070;BME280;41944;52.078;-0.058;2023-01-29T09:38:21;102440.66;;;7.67;89.86
56070;BME280;41944;52.078;-0.058;2023-01-29T09:40:57;102431.45;;;7.68;90.83
56070;BME280;41944;52.078;-0.058;2023-01-29T09:43:38;102430.45;;;7.84;90.27
56070;BME280;41944;52.078;-0.058;2023-01-29T09:46:14;102428.88;;;7.96;89.33
56070;BME280;41944;52.078;-0.058;2023-01-29T09:48:43;102424.96;;;7.96;89.92
56070;BME280;41944;52.078;-0.058;2023-01-29T09:51:18;102421.83;;;8.01;89.62
56070;BME280;41944;52.078;-0.058;2023-01-29T09:53:53;102415.18;;;8.00;89.68
56070;BME280;41944;52.078;-0.058;2023-01-29T09:56:24;102416.24;;;8.08;89.81
56070;BME280;41944;52.078;-0.058;2023-01-29T09:58:51;102422.83;;;8.17;89.15
56070;BME280;41944;52.078;-0.058;2023-01-29T10:01:22;102421.39;;;8.19;89.39
56070;BME280;41944;52.078;-0.058;2023-01-29T10:04:05;102418.29;;;8.21;89.41
56070;BME280;41944;52.078;-0.058;2023-01-29T10:06:43;102424.89;;;8.15;89.28
56070;BME280;41944;52.078;-0.058;2023-01-29T10:09:30;102418.86;;;8.26;89.40
56070;BME280;41944;52.078;-0.058;2023-01-29T10:12:14;102411.16;;;8.22;89.91
56070;BME280;41944;52.078;-0.058;2023-01-29T10:14:51;102407.78;;;8.31;89.06
56070;BME280;41944;52.078;-0.058;2023-01-29T10:17:35;102404.69;;;8.23;89.68
56070;BME280;41944;52.078;-0.058;2023-01-29T10:20:20;102403.87;;;8.08;90.88
56070;BME280;41944;52.078;-0.058;2023-01-29T10:22:59;102400.44;;;8.18;90.71
56070;BME280;41944;52.078;-0.058;2023-01-29T10:25:38;102396.34;;;8.09;91.60
56070;BME280;41944;52.078;-0.058;2023-01-29T10:28:15;102391.04;;;8.07;92.02
56070;BME280;41944;52.078;-0.058;2023-01-29T10:30:46;102392.66;;;8.18;92.01
56070;BME280;41944;52.078;-0.058;2023-01-29T10:33:18;102381.89;;;8.12;92.59
56070;BME280;41944;52.078;-0.058;2023-01-29T10:35:50;102387.00;;;8.16;93.54
56070;BME280;41944;52.078;-0.058;2023-01-29T10:38:27;102388.41;;;8.29;92.73
56070;BME280;41944;52.078;-0.058;2023-01-29T10:41:05;102386.74;;;8.36;92.78
56070;BME280;41944;52.078;-0.058;2023-01-29T10:43:53;102379.55;;;8.51;91.24
56070;BME280;41944;52.078;-0.058;2023-01-29T10:46:32;102378.82;;;8.60;90.90
56070;BME280;41944;52.078;-0.058;2023-01-29T10:49:13;102367.56;;;8.70;89.97
56070;BME280;41944;52.078;-0.058;2023-01-29T10:51:55;102370.31;;;8.71;90.21
56070;BME280;41944;52.078;-0.058;2023-01-29T10:54:41;102361.92;;;8.85;89.36
56070;BME280;41944;52.078;-0.058;2023-01-29T10:57:19;102359.44;;;8.78;90.19
56070;BME280;41944;52.078;-0.058;2023-01-29T11:00:02;102352.81;;;8.82;90.29
56070;BME280;41944;52.078;-0.058;2023-01-29T11:02:33;102351.60;;;8.82;90.01
56070;BME280;41944;52.078;-0.058;2023-01-29T11:05:00;102336.29;;;8.89;89.55
56070;BME280;41944;52.078;-0.058;2023-01-29T11:07:28;102337.36;;;8.92;90.19
56070;BME280;41944;52.078;-0.058;2023-01-29T11:09:59;102323.67;;;9.05;89.09
56070;BME280;41944;52.078;-0.058;2023-01-29T11:12:29;102317.50;;;9.00;89.99
56070;BME280;41944;52.078;-0.058;2023-01-29T11:15:02;102308.66;;;9.07;89.39
56070;BME280;41944;52.078;-0.058;2023-01-29T11:17:30;102307.59;;;9.11;88.30
56070;BME280;41944;52.078;-0.058;2023-01-29T11:19:58;102301.94;;;9.05;89.04
56070;BME280;41944;52.078;-0.058;2023-01-29T11:22:26;102301.70;;;9.13;88.80
56070;BME280;41944;52.078;-0.058;2023-01-29T11:25:15;102299.34;;;9.13;88.65
56070;BME280;41944;52.078;-0.058;2023-01-29T11:27:44;102294.88;;;9.08;89.78
56070;BME280;41944;52.078;-0.058;2023-01-29T11:30:19;102292.58;;;9.19;88.59
56070;BME280;41944;52.078;-0.058;2023-01-29T11:32:51;102289.08;;;9.26;88.13
56070;BME280;41944;52.078;-0.058;2023-01-29T11:35:23;102287.56;;;9.20;89.02
56070;BME280;41944;52.078;-0.058;2023-01-29T11:37:51;102283.15;;;9.19;88.84
56070;BME280;41944;52.078;-0.058;2023-01-29T11:40:34;102279.97;;;9.16;89.78
56070;BME280;41944;52.078;-0.058;2023-01-29T11:43:12;102274.11;;;9.14;90.36
56070;BME280;41944;52.078;-0.058;2023-01-29T11:45:44;102279.31;;;9.29;89.11
56070;BME280;41944;52.078;-0.058;2023-01-29T11:48:14;102275.56;;;9.28;88.38
56070;BME280;41944;52.078;-0.058;2023-01-29T11:50:43;102271.97;;;9.23;88.50
56070;BME280;41944;52.078;-0.058;2023-01-29T11:53:33;102269.48;;;9.25;88.23
56070;BME280;41944;52.078;-0.058;2023-01-29T11:56:04;102266.43;;;9.24;89.78
56070;BME280;41944;52.078;-0.058;2023-01-29T11:58:34;102254.92;;;9.47;88.12
56070;BME280;41944;52.078;-0.058;2023-01-29T12:01:02;102252.93;;;9.52;87.53
56070;BME280;41944;52.078;-0.058;2023-01-29T12:03:33;102243.12;;;9.56;87.38
56070;BME280;41944;52.078;-0.058;2023-01-29T12:06:04;102237.55;;;9.59;87.07
56070;BME280;41944;52.078;-0.058;2023-01-29T12:08:35;102233.08;;;9.66;87.15
56070;BME280;41944;52.078;-0.058;2023-01-29T12:11:12;102223.30;;;9.62;87.83
56070;BME280;41944;52.078;-0.058;2023-01-29T12:13:40;102213.66;;;9.63;87.83
56070;BME280;41944;52.078;-0.058;2023-01-29T12:16:15;102208.46;;;9.60;88.25
56070;BME280;41944;52.078;-0.058;2023-01-29T12:18:48;102199.35;;;9.65;88.32
56070;BME280;41944;52.078;-0.058;2023-01-29T12:21:21;102196.12;;;9.69;87.78
56070;BME280;41944;52.078;-0.058;2023-01-29T12:23:54;102189.94;;;9.74;86.54
56070;BME280;41944;52.078;-0.058;2023-01-29T12:26:27;102176.57;;;9.62;87.75
56070;BME280;41944;52.078;-0.058;2023-01-29T12:29:15;102174.26;;;9.72;87.63
56070;BME280;41944;52.078;-0.058;2023-01-29T12:31:49;102159.02;;;9.85;87.10
56070;BME280;41944;52.078;-0.058;2023-01-29T12:34:29;102153.77;;;10.03;85.84
56070;BME280;41944;52.078;-0.058;2023-01-29T12:37:02;102150.33;;;10.04;85.41
56070;BME280;41944;52.078;-0.058;2023-01-29T12:39:30;102143.09;;;10.14;85.41
56070;BME280;41944;52.078;-0.058;2023-01-29T12:42:00;102140.22;;;10.17;85.24
56070;BME280;41944;52.078;-0.058;2023-01-29T12:44:30;102129.41;;;10.22;84.98
56070;BME280;41944;52.078;-0.058;2023-01-29T12:47:04;102122.65;;;10.33;85.39
56070;BME280;41944;52.078;-0.058;2023-01-29T12:49:33;102116.37;;;10.49;84.53
56070;BME280;41944;52.078;-0.058;2023-01-29T12:52:14;102115.71;;;10.63;83.38
56070;BME280;41944;52.078;-0.058;2023-01-29T12:54:47;102112.57;;;10.68;83.79
56070;BME280;41944;52.078;-0.058;2023-01-29T12:57:22;102113.69;;;10.71;83.48
56070;BME280;41944;52.078;-0.058;2023-01-29T12:59:53;102114.68;;;10.83;82.30
56070;BME280;41944;52.078;-0.058;2023-01-29T13:02:31;102117.24;;;10.88;81.52
56070;BME280;41944;52.078;-0.058;2023-01-29T13:05:04;102106.13;;;11.07;80.44